sensor_id;sensor_type;location;lat;lon;timestamp;temperature;humidity
1447;DHT22;717;51.522;7.266;2022-12-26T00:01:17;14.10;99.90
1447;DHT22;717;51.522;7.266;2022-12-26T00:03:47;14.20;99.90
1447;DHT22;717;51.522;7.266;2022-12-26T00:06:17;14.10;99.90
1447;DHT22;717;51.522;7.266;2022-12-26T00:08:46;14.10;99.90
1447;DHT22;717;51.522;7.266;2022-12-26T00:11:16;14.00;99.90
1447;DHT22;717;51.522;7.266;2022-12-26T00:13:53;14.00;99.90
1447;DHT22;717;51.522;7.266;2022-12-26T00:16:22;14.00;99.90
1447;DHT22;717;51.522;7.266;2022-12-26T00:18:51;14.00;99.90
1447;DHT22;717;51.522;7.266;2022-12-26T00:21:21;14.00;99.90
1447;DHT22;717;51.522;7.266;2022-12-26T00:23:52;14.00;99.90
1447;DHT22;717;51.522;7.266;2022-12-26T00:26:23;14.00;99.90
1447;DHT22;717;51.522;7.266;2022-12-26T00:28:55;14.00;99.90
1447;DHT22;717;51.522;7.266;2022-12-26T00:31:26;14.00;99.90
1447;DHT22;717;51.522;7.266;2022-12-26T00:33:55;14.00;99.90
1447;DHT22;717;51.522;7.266;2022-12-26T00:36:25;14.00;99.90
1447;DHT22;717;51.522;7.266;2022-12-26T00:38:55;14.00;99.90
1447;DHT22;717;51.522;7.266;2022-12-26T00:41:25;14.00;99.90
1447;DHT22;717;51.522;7.266;2022-12-26T00:43:57;14.00;99.90
1447;DHT22;717;51.522;7.266;2022-12-26T00:46:26;14.10;99.90
1447;DHT22;717;51.522;7.266;2022-12-26T00:48:54;14.00;99.90
1447;DHT22;717;51.522;7.266;2022-12-26T00:51:23;14.00;99.90
1447;DHT22;717;51.522;7.266;2022-12-26T00:53:52;14.00;99.90
1447;DHT22;717;51.522;7.266;2022-12-26T00:56:23;13.90;99.90
1447;DHT22;717;51.522;7.266;2022-12-26T00:58:52;13.90;99.90
1447;DHT22;717;51.522;7.266;2022-12-26T01:01:23;13.90;99.90
1447;DHT22;717;51.522;7.266;2022-12-26T01:03:57;13.90;99.90
1447;DHT22;717;51.522;7.266;2022-12-26T01:06:25;13.80;99.90
1447;DHT22;717;51.522;7.266;2022-12-26T01:08:54;13.80;99.90
1447;DHT22;717;51.522;7.266;2022-12-26T01:11:24;13.80;99.90
1447;DHT22;717;51.522;7.266;2022-12-26T01:14:09;13.80;99.90
1447;DHT22;717;51.522;7.266;2022-12-26T01:16:45;13.80;99.90
1447;DHT22;717;51.522;7.266;2022-12-26T01:19:14;13.80;99.90
1447;DHT22;717;51.522;7.266;2022-12-26T01:21:42;13.80;99.90
1447;DHT22;717;51.522;7.266;2022-12-26T01:24:11;13.90;99.90
1447;DHT22;717;51.522;7.266;2022-12-26T01:26:40;13.80;99.90
1447;DHT22;717;51.522;7.266;2022-12-26T01:29:08;13.80;99.90
1447;DHT22;717;51.522;7.266;2022-12-26T01:31:39;13.80;99.90
1447;DHT22;717;51.522;7.266;2022-12-26T01:34:08;13.80;99.90
1447;DHT22;717;51.522;7.266;2022-12-26T01:36:37;13.80;99.90
1447;DHT22;717;51.522;7.266;2022-12-26T01:39:06;13.90;99.90
1447;DHT22;717;51.522;7.266;2022-12-26T01:41:35;13.80;99.90
1447;DHT22;717;51.522;7.266;2022-12-26T01:44:58;13.90;99.90
1447;DHT22;717;51.522;7.266;2022-12-26T01:46:57;13.90;99.90
1447;DHT22;717;51.522;7.266;2022-12-26T01:49:31;13.90;99.90
1447;DHT22;717;51.522;7.266;2022-12-26T01:52:06;13.80;99.90
1447;DHT22;717;51.522;7.266;2022-12-26T01:54:37;13.90;99.90
1447;DHT22;717;51.522;7.266;2022-12-26T01:57:10;13.90;99.90
1447;DHT22;717;51.522;7.266;2022-12-26T01:59:41;13.90;99.90
1447;DHT22;717;51.522;7.266;2022-12-26T02:02:13;13.90;99.90
1447;DHT22;717;51.522;7.266;2022-12-26T02:04:46;13.90;99.90
1447;DHT22;717;51.522;7.266;2022-12-26T02:07:28;13.90;99.90
1447;DHT22;717;51.522;7.266;2022-12-26T02:09:59;13.90;99.90
1447;DHT22;717;51.522;7.266;2022-12-26T02:12:29;13.90;99.90
1447;DHT22;717;51.522;7.266;2022-12-26T02:15:00;13.90;99.90
1447;DHT22;717;51.522;7.266;2022-12-26T02:17:32;13.90;99.90
1447;DHT22;717;51.522;7.266;2022-12-26T02:20:14;14.00;99.90
1447;DHT22;717;51.522;7.266;2022-12-26T02:26:08;13.90;99.90
1447;DHT22;717;51.522;7.266;2022-12-26T02:28:50;13.90;99.90
1447;DHT22;717;51.522;7.266;2022-12-26T02:31:32;13.90;99.90
1447;DHT22;717;51.522;7.266;2022-12-26T02:34:08;13.90;99.90
1447;DHT22;717;51.522;7.266;2022-12-26T02:37:00;13.90;99.90
1447;DHT22;717;51.522;7.266;2022-12-26T02:39:45;13.90;99.90
1447;DHT22;717;51.522;7.266;2022-12-26T02:42:24;13.90;99.90
1447;DHT22;717;51.522;7.266;2022-12-26T02:45:01;13.90;99.90
1447;DHT22;717;51.522;7.266;2022-12-26T02:47:53;13.90;99.90
1447;DHT22;717;51.522;7.266;2022-12-26T02:50:31;14.00;99.90
1447;DHT22;717;51.522;7.266;2022-12-26T02:53:20;14.00;99.90
1447;DHT22;717;51.522;7.266;2022-12-26T02:56:14;14.00;99.90
1447;DHT22;717;51.522;7.266;2022-12-26T02:59:01;13.90;99.90
1447;DHT22;717;51.522;7.266;2022-12-26T03:01:59;13.90;99.90
1447;DHT22;717;51.522;7.266;2022-12-26T03:04:45;13.90;99.90
1447;DHT22;717;51.522;7.266;2022-12-26T03:07:31;13.90;99.90
1447;DHT22;717;51.522;7.266;2022-12-26T03:10:17;13.90;99.90
1447;DHT22;717;51.522;7.266;2022-12-26T03:13:03;13.80;99.90
1447;DHT22;717;51.522;7.266;2022-12-26T03:15:43;13.80;99.90
1447;DHT22;717;51.522;7.266;2022-12-26T03:18:27;13.80;99.90
1447;DHT22;717;51.522;7.266;2022-12-26T03:20:59;13.70;99.90
1447;DHT22;717;51.522;7.266;2022-12-26T03:23:31;13.70;99.90
1447;DHT22;717;51.522;7.266;2022-12-26T03:26:04;13.70;99.90
1447;DHT22;717;51.522;7.266;2022-12-26T03:28:46;13.70;99.90
1447;DHT22;717;51.522;7.266;2022-12-26T03:31:18;13.70;99.90
1447;DHT22;717;51.522;7.266;2022-12-26T03:33:45;13.80;99.90
1447;DHT22;717;51.522;7.266;2022-12-26T03:36:37;13.80;99.90
1447;DHT22;717;51.522;7.266;2022-12-26T03:39:12;13.80;99.90
1447;DHT22;717;51.522;7.266;2022-12-26T03:41:51;13.70;99.90
1447;DHT22;717;51.522;7.266;2022-12-26T03:44:42;13.70;99.90
1447;DHT22;717;51.522;7.266;2022-12-26T03:47:38;13.70;99.90
1447;DHT22;717;51.522;7.266;2022-12-26T03:50:28;13.70;99.90
1447;DHT22;717;51.522;7.266;2022-12-26T03:53:19;13.70;99.90
1447;DHT22;717;51.522;7.266;2022-12-26T03:56:06;13.70;99.90
1447;DHT22;717;51.522;7.266;2022-12-26T03:58:52;13.70;99.90
1447;DHT22;717;51.522;7.266;2022-12-26T04:01:37;13.70;99.90
1447;DHT22;717;51.522;7.266;2022-12-26T04:04:20;13.70;99.90
1447;DHT22;717;51.522;7.266;2022-12-26T04:07:05;13.70;99.90
1447;DHT22;717;51.522;7.266;2022-12-26T04:09:54;13.70;99.90
1447;DHT22;717;51.522;7.266;2022-12-26T04:12:38;13.70;99.90
1447;DHT22;717;51.522;7.266;2022-12-26T04:15:23;13.70;99.90
1447;DHT22;717;51.522;7.266;2022-12-26T04:18:10;13.70;99.90
1447;DHT22;717;51.522;7.266;2022-12-26T04:21:03;13.60;99.90
1447;DHT22;717;51.522;7.266;2022-12-26T04:23:39;13.60;99.90
1447;DHT22;717;51.522;7.266;2022-12-26T04:26:28;13.60;99.90
1447;DHT22;717;51.522;7.266;2022-12-26T04:29:10;13.60;99.90
1447;DHT22;717;51.522;7.266;2022-12-26T04:31:53;13.60;99.90
1447;DHT22;717;51.522;7.266;2022-12-26T04:34:42;13.50;99.90
1447;DHT22;717;51.522;7.266;2022-12-26T04:37:28;13.60;99.90
1447;DHT22;717;51.522;7.266;2022-12-26T04:40:15;13.50;99.90
1447;DHT22;717;51.522;7.266;2022-12-26T04:43:00;13.50;99.90
1447;DHT22;717;51.522;7.266;2022-12-26T04:45:42;13.40;99.90
1447;DHT22;717;51.522;7.266;2022-12-26T04:48:11;13.40;99.90
1447;DHT22;717;51.522;7.266;2022-12-26T04:50:55;13.40;99.90
1447;DHT22;717;51.522;7.266;2022-12-26T04:53:23;13.30;99.90
1447;DHT22;717;51.522;7.266;2022-12-26T04:55:52;13.30;99.90
1447;DHT22;717;51.522;7.266;2022-12-26T04:58:23;13.40;99.90
1447;DHT22;717;51.522;7.266;2022-12-26T05:00:54;13.30;99.90
1447;DHT22;717;51.522;7.266;2022-12-26T05:03:43;13.30;99.90
1447;DHT22;717;51.522;7.266;2022-12-26T05:06:24;13.30;99.90
1447;DHT22;717;51.522;7.266;2022-12-26T05:09:07;13.30;99.90
1447;DHT22;717;51.522;7.266;2022-12-26T05:11:48;13.30;99.90
1447;DHT22;717;51.522;7.266;2022-12-26T05:14:20;13.30;99.90
1447;DHT22;717;51.522;7.266;2022-12-26T05:16:49;13.30;99.90
1447;DHT22;717;51.522;7.266;2022-12-26T05:19:30;13.40;99.90
1447;DHT22;717;51.522;7.266;2022-12-26T05:22:11;13.40;99.90
1447;DHT22;717;51.522;7.266;2022-12-26T05:24:52;13.30;99.90
1447;DHT22;717;51.522;7.266;2022-12-26T05:27:36;13.30;99.90
1447;DHT22;717;51.522;7.266;2022-12-26T05:30:20;13.30;99.90
1447;DHT22;717;51.522;7.266;2022-12-26T05:32:49;13.30;99.90
1447;DHT22;717;51.522;7.266;2022-12-26T05:35:30;13.30;99.90
1447;DHT22;717;51.522;7.266;2022-12-26T05:37:59;13.30;99.90
1447;DHT22;717;51.522;7.266;2022-12-26T05:40:29;13.30;99.90
1447;DHT22;717;51.522;7.266;2022-12-26T05:42:57;13.30;99.90
1447;DHT22;717;51.522;7.266;2022-12-26T05:45:28;13.30;99.90
1447;DHT22;717;51.522;7.266;2022-12-26T05:47:58;13.30;99.90
1447;DHT22;717;51.522;7.266;2022-12-26T05:50:27;13.30;99.90
1447;DHT22;717;51.522;7.266;2022-12-26T05:52:56;13.30;99.90
1447;DHT22;717;51.522;7.266;2022-12-26T05:55:25;13.30;99.90
1447;DHT22;717;51.522;7.266;2022-12-26T05:57:54;13.30;99.90
1447;DHT22;717;51.522;7.266;2022-12-26T06:00:22;13.30;99.90
1447;DHT22;717;51.522;7.266;2022-12-26T06:02:53;13.30;99.90
1447;DHT22;717;51.522;7.266;2022-12-26T06:05:22;13.40;99.90
1447;DHT22;717;51.522;7.266;2022-12-26T06:07:51;13.40;99.90
1447;DHT22;717;51.522;7.266;2022-12-26T06:10:20;13.40;99.90
1447;DHT22;717;51.522;7.266;2022-12-26T06:12:50;13.30;99.90
1447;DHT22;717;51.522;7.266;2022-12-26T06:15:19;13.30;99.90
1447;DHT22;717;51.522;7.266;2022-12-26T06:17:48;13.30;99.90
1447;DHT22;717;51.522;7.266;2022-12-26T06:20:19;13.30;99.90
1447;DHT22;717;51.522;7.266;2022-12-26T06:22:48;13.30;99.90
1447;DHT22;717;51.522;7.266;2022-12-26T06:25:16;13.30;99.90
1447;DHT22;717;51.522;7.266;2022-12-26T06:27:45;13.30;99.90
1447;DHT22;717;51.522;7.266;2022-12-26T06:30:14;13.30;99.90
1447;DHT22;717;51.522;7.266;2022-12-26T06:32:44;13.30;99.90
1447;DHT22;717;51.522;7.266;2022-12-26T06:35:13;13.30;99.90
1447;DHT22;717;51.522;7.266;2022-12-26T06:37:44;13.30;99.90
1447;DHT22;717;51.522;7.266;2022-12-26T06:40:13;13.30;99.90
1447;DHT22;717;51.522;7.266;2022-12-26T06:42:42;13.20;99.90
1447;DHT22;717;51.522;7.266;2022-12-26T06:45:10;13.10;99.90
1447;DHT22;717;51.522;7.266;2022-12-26T06:47:39;13.10;99.90
1447;DHT22;717;51.522;7.266;2022-12-26T06:50:08;13.10;99.90
1447;DHT22;717;51.522;7.266;2022-12-26T06:52:37;13.10;99.90
1447;DHT22;717;51.522;7.266;2022-12-26T06:55:09;13.00;99.90
1447;DHT22;717;51.522;7.266;2022-12-26T06:57:37;13.10;99.90
1447;DHT22;717;51.522;7.266;2022-12-26T07:00:08;13.10;99.90
1447;DHT22;717;51.522;7.266;2022-12-26T07:02:36;13.10;99.90
1447;DHT22;717;51.522;7.266;2022-12-26T07:05:06;13.10;99.90
1447;DHT22;717;51.522;7.266;2022-12-26T07:07:34;13.10;99.90
1447;DHT22;717;51.522;7.266;2022-12-26T07:10:09;13.10;99.90
1447;DHT22;717;51.522;7.266;2022-12-26T07:12:38;13.10;99.90
1447;DHT22;717;51.522;7.266;2022-12-26T07:15:07;13.10;99.90
1447;DHT22;717;51.522;7.266;2022-12-26T07:17:36;13.20;99.90
1447;DHT22;717;51.522;7.266;2022-12-26T07:20:06;13.20;99.90
1447;DHT22;717;51.522;7.266;2022-12-26T07:22:35;13.10;99.90
1447;DHT22;717;51.522;7.266;2022-12-26T07:25:05;13.10;99.90
1447;DHT22;717;51.522;7.266;2022-12-26T07:27:36;13.10;99.90
1447;DHT22;717;51.522;7.266;2022-12-26T07:30:06;13.20;99.90
1447;DHT22;717;51.522;7.266;2022-12-26T07:32:35;13.20;99.90
1447;DHT22;717;51.522;7.266;2022-12-26T07:35:04;13.20;99.90
1447;DHT22;717;51.522;7.266;2022-12-26T07:37:33;13.30;99.90
1447;DHT22;717;51.522;7.266;2022-12-26T07:40:01;13.30;99.90
1447;DHT22;717;51.522;7.266;2022-12-26T07:42:30;13.30;99.90
1447;DHT22;717;51.522;7.266;2022-12-26T07:45:02;13.30;99.90
1447;DHT22;717;51.522;7.266;2022-12-26T07:47:30;13.30;99.90
1447;DHT22;717;51.522;7.266;2022-12-26T07:49:59;13.40;99.90
1447;DHT22;717;51.522;7.266;2022-12-26T07:52:27;13.40;99.90
1447;DHT22;717;51.522;7.266;2022-12-26T07:54:56;13.40;99.90
1447;DHT22;717;51.522;7.266;2022-12-26T07:57:24;13.50;99.90
1447;DHT22;717;51.522;7.266;2022-12-26T07:59:53;13.50;99.90
1447;DHT22;717;51.522;7.266;2022-12-26T08:02:24;13.50;99.90
1447;DHT22;717;51.522;7.266;2022-12-26T08:04:53;13.50;99.90
1447;DHT22;717;51.522;7.266;2022-12-26T08:07:22;13.50;99.90
1447;DHT22;717;51.522;7.266;2022-12-26T08:09:50;13.40;99.90
1447;DHT22;717;51.522;7.266;2022-12-26T08:12:19;13.40;99.90
1447;DHT22;717;51.522;7.266;2022-12-26T08:14:49;13.40;99.90
1447;DHT22;717;51.522;7.266;2022-12-26T08:17:18;13.40;99.90
1447;DHT22;717;51.522;7.266;2022-12-26T08:19:49;13.40;99.90
1447;DHT22;717;51.522;7.266;2022-12-26T08:22:17;13.40;99.90
1447;DHT22;717;51.522;7.266;2022-12-26T08:24:46;13.40;99.90
1447;DHT22;717;51.522;7.266;2022-12-26T08:27:15;13.30;99.90
1447;DHT22;717;51.522;7.266;2022-12-26T08:29:43;13.40;99.90
1447;DHT22;717;51.522;7.266;2022-12-26T08:32:12;13.40;99.90
1447;DHT22;717;51.522;7.266;2022-12-26T08:34:41;13.40;99.90
1447;DHT22;717;51.522;7.266;2022-12-26T08:37:12;13.40;99.90
1447;DHT22;717;51.522;7.266;2022-12-26T08:39:40;13.40;99.90
1447;DHT22;717;51.522;7.266;2022-12-26T08:42:09;13.50;99.90
1447;DHT22;717;51.522;7.266;2022-12-26T08:44:37;13.50;99.90
1447;DHT22;717;51.522;7.266;2022-12-26T08:47:06;13.50;99.90
1447;DHT22;717;51.522;7.266;2022-12-26T08:49:35;13.50;99.90
1447;DHT22;717;51.522;7.266;2022-12-26T08:52:03;13.50;99.90
1447;DHT22;717;51.522;7.266;2022-12-26T08:54:35;13.50;99.90
1447;DHT22;717;51.522;7.266;2022-12-26T08:57:03;13.50;99.90
1447;DHT22;717;51.522;7.266;2022-12-26T08:59:32;13.50;99.90
1447;DHT22;717;51.522;7.266;2022-12-26T09:02:00;13.60;99.90
1447;DHT22;717;51.522;7.266;2022-12-26T09:04:29;13.60;99.90
1447;DHT22;717;51.522;7.266;2022-12-26T09:06:57;13.60;99.90
1447;DHT22;717;51.522;7.266;2022-12-26T09:09:26;13.60;99.90
1447;DHT22;717;51.522;7.266;2022-12-26T09:11:58;13.60;99.90
1447;DHT22;717;51.522;7.266;2022-12-26T09:14:28;13.60;99.90
1447;DHT22;717;51.522;7.266;2022-12-26T09:16:57;13.50;99.90
1447;DHT22;717;51.522;7.266;2022-12-26T09:19:25;13.60;99.90
1447;DHT22;717;51.522;7.266;2022-12-26T09:21:57;13.60;99.90
1447;DHT22;717;51.522;7.266;2022-12-26T09:24:38;13.60;99.90
1447;DHT22;717;51.522;7.266;2022-12-26T09:27:10;13.60;99.90
1447;DHT22;717;51.522;7.266;2022-12-26T09:29:38;13.60;99.90
1447;DHT22;717;51.522;7.266;2022-12-26T09:32:07;13.50;99.90
1447;DHT22;717;51.522;7.266;2022-12-26T09:34:35;13.60;99.90
1447;DHT22;717;51.522;7.266;2022-12-26T09:37:04;13.50;99.90
1447;DHT22;717;51.522;7.266;2022-12-26T09:39:33;13.50;99.90
1447;DHT22;717;51.522;7.266;2022-12-26T09:42:11;13.50;99.90
1447;DHT22;717;51.522;7.266;2022-12-26T09:44:49;13.50;99.90
1447;DHT22;717;51.522;7.266;2022-12-26T09:47:30;13.50;99.90
1447;DHT22;717;51.522;7.266;2022-12-26T09:50:04;13.50;99.90
1447;DHT22;717;51.522;7.266;2022-12-26T09:52:40;13.50;99.90
1447;DHT22;717;51.522;7.266;2022-12-26T09:55:25;13.50;99.90
1447;DHT22;717;51.522;7.266;2022-12-26T09:58:00;13.60;99.90
1447;DHT22;717;51.522;7.266;2022-12-26T10:00:37;13.60;99.90
1447;DHT22;717;51.522;7.266;2022-12-26T10:03:10;13.50;99.90
1447;DHT22;717;51.522;7.266;2022-12-26T10:05:45;13.50;99.90
1447;DHT22;717;51.522;7.266;2022-12-26T10:08:23;13.50;99.90
1447;DHT22;717;51.522;7.266;2022-12-26T10:10:57;13.50;99.90
1447;DHT22;717;51.522;7.266;2022-12-26T10:13:36;13.60;99.90
1447;DHT22;717;51.522;7.266;2022-12-26T10:16:13;13.60;99.90
1447;DHT22;717;51.522;7.266;2022-12-26T10:18:52;13.60;99.90
1447;DHT22;717;51.522;7.266;2022-12-26T10:21:33;13.60;99.90
1447;DHT22;717;51.522;7.266;2022-12-26T10:24:07;13.60;99.90
1447;DHT22;717;51.522;7.266;2022-12-26T10:26:40;13.60;99.90
1447;DHT22;717;51.522;7.266;2022-12-26T10:29:18;13.60;99.90
1447;DHT22;717;51.522;7.266;2022-12-26T10:31:50;13.70;99.90
1447;DHT22;717;51.522;7.266;2022-12-26T10:34:23;13.70;99.90
1447;DHT22;717;51.522;7.266;2022-12-26T10:36:56;13.70;99.90
1447;DHT22;717;51.522;7.266;2022-12-26T10:39:29;13.80;99.90
1447;DHT22;717;51.522;7.266;2022-12-26T10:42:07;13.70;99.90
1447;DHT22;717;51.522;7.266;2022-12-26T10:44:40;13.80;99.90
1447;DHT22;717;51.522;7.266;2022-12-26T10:47:21;13.80;99.90
1447;DHT22;717;51.522;7.266;2022-12-26T10:49:51;13.80;99.90
1447;DHT22;717;51.522;7.266;2022-12-26T10:52:26;13.90;99.90
1447;DHT22;717;51.522;7.266;2022-12-26T10:54:57;13.90;99.90
1447;DHT22;717;51.522;7.266;2022-12-26T10:57:28;13.90;99.90
1447;DHT22;717;51.522;7.266;2022-12-26T11:00:00;13.90;99.90
1447;DHT22;717;51.522;7.266;2022-12-26T11:02:31;14.00;99.90
1447;DHT22;717;51.522;7.266;2022-12-26T11:05:03;13.90;99.90
1447;DHT22;717;51.522;7.266;2022-12-26T11:07:35;13.90;99.90
1447;DHT22;717;51.522;7.266;2022-12-26T11:10:13;13.90;99.90
1447;DHT22;717;51.522;7.266;2022-12-26T11:12:46;13.90;99.90
1447;DHT22;717;51.522;7.266;2022-12-26T11:15:27;13.90;99.90
1447;DHT22;717;51.522;7.266;2022-12-26T11:18:07;13.90;99.90
1447;DHT22;717;51.522;7.266;2022-12-26T11:20:37;13.90;99.90
1447;DHT22;717;51.522;7.266;2022-12-26T11:23:22;13.90;99.90
1447;DHT22;717;51.522;7.266;2022-12-26T11:25:52;13.90;99.90
1447;DHT22;717;51.522;7.266;2022-12-26T11:28:29;13.90;99.90
1447;DHT22;717;51.522;7.266;2022-12-26T11:31:05;13.90;99.90
1447;DHT22;717;51.522;7.266;2022-12-26T11:33:35;13.90;99.90
1447;DHT22;717;51.522;7.266;2022-12-26T11:36:10;13.90;99.90
1447;DHT22;717;51.522;7.266;2022-12-26T11:38:50;13.80;99.90
1447;DHT22;717;51.522;7.266;2022-12-26T11:41:33;13.90;99.90
1447;DHT22;717;51.522;7.266;2022-12-26T11:44:22;13.90;99.90
1447;DHT22;717;51.522;7.266;2022-12-26T11:46:57;13.90;99.90
1447;DHT22;717;51.522;7.266;2022-12-26T11:49:29;13.90;99.90
1447;DHT22;717;51.522;7.266;2022-12-26T11:52:01;13.90;99.90
1447;DHT22;717;51.522;7.266;2022-12-26T11:54:34;14.00;99.90
1447;DHT22;717;51.522;7.266;2022-12-26T11:57:11;13.90;99.90
1447;DHT22;717;51.522;7.266;2022-12-26T11:59:40;13.90;99.90
1447;DHT22;717;51.522;7.266;2022-12-26T12:02:24;13.90;99.90
1447;DHT22;717;51.522;7.266;2022-12-26T12:04:57;13.90;99.90
1447;DHT22;717;51.522;7.266;2022-12-26T12:10:46;13.80;99.90
1447;DHT22;717;51.522;7.266;2022-12-26T12:13:30;13.70;99.90
1447;DHT22;717;51.522;7.266;2022-12-26T12:16:07;13.60;99.90
1447;DHT22;717;51.522;7.266;2022-12-26T12:18:52;13.40;99.90
1447;DHT22;717;51.522;7.266;2022-12-26T12:21:30;13.40;99.90
1447;DHT22;717;51.522;7.266;2022-12-26T12:24:21;13.40;99.90
1447;DHT22;717;51.522;7.266;2022-12-26T12:27:00;13.30;99.90
1447;DHT22;717;51.522;7.266;2022-12-26T12:29:38;13.30;99.90
1447;DHT22;717;51.522;7.266;2022-12-26T12:32:14;13.30;99.90
1447;DHT22;717;51.522;7.266;2022-12-26T12:35:02;13.30;99.90
1447;DHT22;717;51.522;7.266;2022-12-26T12:37:43;13.20;99.90
1447;DHT22;717;51.522;7.266;2022-12-26T12:40:25;13.30;99.90
1447;DHT22;717;51.522;7.266;2022-12-26T12:42:59;13.20;99.90
1447;DHT22;717;51.522;7.266;2022-12-26T12:45:33;13.10;99.90
1447;DHT22;717;51.522;7.266;2022-12-26T12:48:30;13.10;99.90
1447;DHT22;717;51.522;7.266;2022-12-26T12:51:08;13.10;99.90
1447;DHT22;717;51.522;7.266;2022-12-26T12:54:08;13.00;99.90
1447;DHT22;717;51.522;7.266;2022-12-26T12:56:45;12.80;99.90
1447;DHT22;717;51.522;7.266;2022-12-26T12:59:25;12.80;99.90
1447;DHT22;717;51.522;7.266;2022-12-26T13:02:00;12.80;99.90
1447;DHT22;717;51.522;7.266;2022-12-26T13:04:33;12.80;99.90
1447;DHT22;717;51.522;7.266;2022-12-26T13:07:11;12.70;99.90
1447;DHT22;717;51.522;7.266;2022-12-26T13:09:44;12.70;99.90
1447;DHT22;717;51.522;7.266;2022-12-26T13:12:17;12.70;99.90
1447;DHT22;717;51.522;7.266;2022-12-26T13:14:49;12.60;99.90
1447;DHT22;717;51.522;7.266;2022-12-26T13:17:22;12.60;99.90
1447;DHT22;717;51.522;7.266;2022-12-26T13:19:57;12.60;99.90
1447;DHT22;717;51.522;7.266;2022-12-26T13:22:32;12.60;99.90
1447;DHT22;717;51.522;7.266;2022-12-26T13:25:23;12.60;99.90
1447;DHT22;717;51.522;7.266;2022-12-26T13:27:53;12.70;99.90
1447;DHT22;717;51.522;7.266;2022-12-26T13:30:34;12.70;99.90
1447;DHT22;717;51.522;7.266;2022-12-26T13:33:03;12.70;99.90
1447;DHT22;717;51.522;7.266;2022-12-26T13:35:51;12.70;99.90
1447;DHT22;717;51.522;7.266;2022-12-26T13:38:24;12.70;99.90
1447;DHT22;717;51.522;7.266;2022-12-26T13:40:56;12.70;99.90
1447;DHT22;717;51.522;7.266;2022-12-26T13:44:02;12.70;99.90
1447;DHT22;717;51.522;7.266;2022-12-26T13:46:52;12.70;99.90
1447;DHT22;717;51.522;7.266;2022-12-26T13:49:28;12.70;99.90
1447;DHT22;717;51.522;7.266;2022-12-26T13:55:27;12.70;99.90
1447;DHT22;717;51.522;7.266;2022-12-26T13:58:27;12.70;99.90
1447;DHT22;717;51.522;7.266;2022-12-26T14:01:17;12.70;99.90
1447;DHT22;717;51.522;7.266;2022-12-26T14:03:57;12.80;99.90
1447;DHT22;717;51.522;7.266;2022-12-26T14:06:49;12.80;99.90
1447;DHT22;717;51.522;7.266;2022-12-26T14:09:34;12.80;99.90
1447;DHT22;717;51.522;7.266;2022-12-26T14:12:35;12.80;99.90
1447;DHT22;717;51.522;7.266;2022-12-26T14:15:22;12.70;99.90
1447;DHT22;717;51.522;7.266;2022-12-26T14:18:03;12.60;99.90
1447;DHT22;717;51.522;7.266;2022-12-26T14:20:43;12.60;99.90
1447;DHT22;717;51.522;7.266;2022-12-26T14:23:26;12.60;99.90
1447;DHT22;717;51.522;7.266;2022-12-26T14:26:02;12.60;99.90
1447;DHT22;717;51.522;7.266;2022-12-26T14:28:49;12.60;99.90
1447;DHT22;717;51.522;7.266;2022-12-26T14:31:25;12.60;99.90
1447;DHT22;717;51.522;7.266;2022-12-26T14:34:03;12.50;99.90
1447;DHT22;717;51.522;7.266;2022-12-26T14:36:39;12.50;99.90
1447;DHT22;717;51.522;7.266;2022-12-26T14:39:19;12.40;99.90
1447;DHT22;717;51.522;7.266;2022-12-26T14:42:16;12.30;99.90
1447;DHT22;717;51.522;7.266;2022-12-26T14:45:01;12.20;99.90
1447;DHT22;717;51.522;7.266;2022-12-26T14:47:36;12.20;99.90
1447;DHT22;717;51.522;7.266;2022-12-26T14:50:37;12.20;99.90
1447;DHT22;717;51.522;7.266;2022-12-26T14:53:30;12.20;99.90
1447;DHT22;717;51.522;7.266;2022-12-26T14:56:00;12.10;99.90
1447;DHT22;717;51.522;7.266;2022-12-26T14:58:40;12.10;99.90
1447;DHT22;717;51.522;7.266;2022-12-26T15:04:21;12.00;99.90
1447;DHT22;717;51.522;7.266;2022-12-26T15:07:13;12.00;99.90
1447;DHT22;717;51.522;7.266;2022-12-26T15:16:15;11.90;99.90
1447;DHT22;717;51.522;7.266;2022-12-26T15:31:27;11.90;99.90
1447;DHT22;717;51.522;7.266;2022-12-26T15:34:01;11.90;99.90
1447;DHT22;717;51.522;7.266;2022-12-26T15:36:39;11.90;99.90
1447;DHT22;717;51.522;7.266;2022-12-26T15:39:20;11.90;99.90
1447;DHT22;717;51.522;7.266;2022-12-26T15:41:56;11.90;99.90
1447;DHT22;717;51.522;7.266;2022-12-26T15:44:37;11.90;99.90
1447;DHT22;717;51.522;7.266;2022-12-26T15:47:17;11.80;99.90
1447;DHT22;717;51.522;7.266;2022-12-26T15:49:57;11.80;99.90
1447;DHT22;717;51.522;7.266;2022-12-26T15:52:37;11.80;99.90
1447;DHT22;717;51.522;7.266;2022-12-26T15:58:05;11.70;99.90
1447;DHT22;717;51.522;7.266;2022-12-26T16:00:47;11.70;99.90
1447;DHT22;717;51.522;7.266;2022-12-26T16:03:23;11.60;99.90
1447;DHT22;717;51.522;7.266;2022-12-26T16:06:04;11.60;99.90
1447;DHT22;717;51.522;7.266;2022-12-26T16:08:53;11.60;99.90
1447;DHT22;717;51.522;7.266;2022-12-26T16:11:26;11.60;99.90
1447;DHT22;717;51.522;7.266;2022-12-26T16:13:59;11.50;99.90
1447;DHT22;717;51.522;7.266;2022-12-26T16:16:35;11.40;99.90
1447;DHT22;717;51.522;7.266;2022-12-26T16:19:15;11.30;99.90
1447;DHT22;717;51.522;7.266;2022-12-26T16:21:46;11.30;99.90
1447;DHT22;717;51.522;7.266;2022-12-26T16:24:28;11.30;99.90
1447;DHT22;717;51.522;7.266;2022-12-26T16:26:59;11.30;99.90
1447;DHT22;717;51.522;7.266;2022-12-26T16:29:29;11.30;99.90
1447;DHT22;717;51.522;7.266;2022-12-26T16:32:05;11.30;99.90
1447;DHT22;717;51.522;7.266;2022-12-26T16:34:35;11.30;99.90
1447;DHT22;717;51.522;7.266;2022-12-26T16:37:04;11.30;99.90
1447;DHT22;717;51.522;7.266;2022-12-26T16:39:33;11.30;99.90
1447;DHT22;717;51.522;7.266;2022-12-26T16:42:03;11.30;99.90
1447;DHT22;717;51.522;7.266;2022-12-26T16:44:38;11.30;99.90
1447;DHT22;717;51.522;7.266;2022-12-26T16:47:13;11.30;99.90
1447;DHT22;717;51.522;7.266;2022-12-26T16:49:42;11.30;99.90
1447;DHT22;717;51.522;7.266;2022-12-26T16:52:30;11.30;99.90
1447;DHT22;717;51.522;7.266;2022-12-26T16:55:23;11.30;99.90
1447;DHT22;717;51.522;7.266;2022-12-26T16:57:54;11.40;99.90
1447;DHT22;717;51.522;7.266;2022-12-26T17:00:24;11.40;99.90
1447;DHT22;717;51.522;7.266;2022-12-26T17:02:56;11.40;99.90
1447;DHT22;717;51.522;7.266;2022-12-26T17:05:28;11.40;99.90
1447;DHT22;717;51.522;7.266;2022-12-26T17:07:59;11.40;99.90
1447;DHT22;717;51.522;7.266;2022-12-26T17:10:30;11.40;99.90
1447;DHT22;717;51.522;7.266;2022-12-26T17:13:02;11.40;99.90
1447;DHT22;717;51.522;7.266;2022-12-26T17:15:33;11.40;99.90
1447;DHT22;717;51.522;7.266;2022-12-26T17:18:38;11.40;99.90
1447;DHT22;717;51.522;7.266;2022-12-26T17:21:32;11.30;99.90
1447;DHT22;717;51.522;7.266;2022-12-26T17:24:17;11.30;99.90
1447;DHT22;717;51.522;7.266;2022-12-26T17:26:51;11.10;99.90
1447;DHT22;717;51.522;7.266;2022-12-26T17:29:46;10.90;99.90
1447;DHT22;717;51.522;7.266;2022-12-26T17:32:24;10.80;99.90
1447;DHT22;717;51.522;7.266;2022-12-26T17:34:59;10.80;99.90
1447;DHT22;717;51.522;7.266;2022-12-26T17:37:28;10.80;99.90
1447;DHT22;717;51.522;7.266;2022-12-26T17:40:06;10.80;99.90
1447;DHT22;717;51.522;7.266;2022-12-26T17:42:45;10.80;99.90
1447;DHT22;717;51.522;7.266;2022-12-26T17:45:16;10.80;99.90
1447;DHT22;717;51.522;7.266;2022-12-26T17:47:45;10.80;99.90